Pagrindinis puslapis
METAR-TAF:

METAR-TAF

Oro uostai :

Nii Ōshima, Japonija

platuma: 34-47N, ilguma: 139-22E, Aukštis: 38 m

Dabartinis oras

Ataskaita buvo paskelbta 4 valandos ir 54 minutes, ne 07:00 UTC
Vėjas 14 kt iš Šiaurės/Šiaurės Rytų
Temperatūra 7°C
Drėgmė 87%
Slėgis 1023 hPa
Matomumas 10 km arba daugiau
Mažai debesys ne aukštis 900 ft
Išsisklaidę debesys ne aukštis 1500 ft
Su prošvaistėmis ne aukštis 2000 ft
lietus

METAR: RJTO 260700Z 03014KT 9999 -RA FEW009 SCT015 BKN020 07/05 Q1023

Laikas: 20:54 (11:54 UTC)


TAF: trūkstamas

Orai ataskaitas ir orų prognozės (METAR, TAF).

turimą stotys yra geltonos ir raudonos taškus žemėlapyje.

Perkelti pele per norėdami pamatyti stoties vardą.

Tada spustelėkite, norėdami matyti oro stebėjimo ir prognozės.

Norėdami pakeisti žemėlapį: spustelėkite ant žalios mygtukų su juodo kryžiaus žemyn,; žalią mygtuką su brūkšneliu, jei norite nutolinti; arba žalių rodyklių gretimoms žemėlapius.


METAR-TAF: